sensor_id;sensor_type;location;lat;lon;timestamp;P1;durP1;ratioP1;P2;durP2;ratioP2
66175;SDS011;52977;44.816;20.538;2023-05-29T00:01:32;5.95;;;3.30;;
66175;SDS011;52977;44.816;20.538;2023-05-29T00:03:58;6.65;;;3.72;;
66175;SDS011;52977;44.816;20.538;2023-05-29T00:06:24;9.27;;;3.78;;
66175;SDS011;52977;44.816;20.538;2023-05-29T00:08:51;8.23;;;3.47;;
66175;SDS011;52977;44.816;20.538;2023-05-29T00:11:17;5.50;;;3.53;;
66175;SDS011;52977;44.816;20.538;2023-05-29T00:13:43;8.35;;;3.70;;
66175;SDS011;52977;44.816;20.538;2023-05-29T00:16:09;6.13;;;3.28;;
66175;SDS011;52977;44.816;20.538;2023-05-29T00:18:35;7.07;;;3.70;;
66175;SDS011;52977;44.816;20.538;2023-05-29T00:21:02;8.35;;;3.67;;
66175;SDS011;52977;44.816;20.538;2023-05-29T00:23:28;9.95;;;3.72;;
66175;SDS011;52977;44.816;20.538;2023-05-29T00:25:54;7.95;;;3.90;;
66175;SDS011;52977;44.816;20.538;2023-05-29T00:28:20;7.32;;;3.88;;
66175;SDS011;52977;44.816;20.538;2023-05-29T00:30:46;7.28;;;3.83;;
66175;SDS011;52977;44.816;20.538;2023-05-29T00:33:12;7.57;;;3.92;;
66175;SDS011;52977;44.816;20.538;2023-05-29T00:35:39;6.97;;;4.05;;
66175;SDS011;52977;44.816;20.538;2023-05-29T00:38:05;7.65;;;3.92;;
66175;SDS011;52977;44.816;20.538;2023-05-29T00:40:31;7.28;;;3.90;;
66175;SDS011;52977;44.816;20.538;2023-05-29T00:42:57;8.38;;;4.07;;
66175;SDS011;52977;44.816;20.538;2023-05-29T00:45:24;8.63;;;4.25;;
66175;SDS011;52977;44.816;20.538;2023-05-29T00:47:51;7.70;;;4.00;;
66175;SDS011;52977;44.816;20.538;2023-05-29T00:50:17;8.32;;;4.50;;
66175;SDS011;52977;44.816;20.538;2023-05-29T00:52:44;9.60;;;4.88;;
66175;SDS011;52977;44.816;20.538;2023-05-29T00:55:11;9.18;;;4.78;;
66175;SDS011;52977;44.816;20.538;2023-05-29T00:57:37;10.68;;;4.95;;
66175;SDS011;52977;44.816;20.538;2023-05-29T01:00:06;9.10;;;4.63;;
66175;SDS011;52977;44.816;20.538;2023-05-29T01:02:43;9.52;;;4.82;;
66175;SDS011;52977;44.816;20.538;2023-05-29T01:05:12;10.75;;;4.85;;
66175;SDS011;52977;44.816;20.538;2023-05-29T01:07:38;10.57;;;5.05;;
66175;SDS011;52977;44.816;20.538;2023-05-29T01:10:05;17.00;;;5.22;;
66175;SDS011;52977;44.816;20.538;2023-05-29T01:21:06;12.18;;;5.25;;
66175;SDS011;52977;44.816;20.538;2023-05-29T01:23:52;7.90;;;4.45;;
66175;SDS011;52977;44.816;20.538;2023-05-29T01:29:13;8.75;;;4.00;;
66175;SDS011;52977;44.816;20.538;2023-05-29T01:31:41;9.88;;;4.60;;
66175;SDS011;52977;44.816;20.538;2023-05-29T01:34:09;7.63;;;4.30;;
66175;SDS011;52977;44.816;20.538;2023-05-29T01:36:35;9.68;;;4.50;;
66175;SDS011;52977;44.816;20.538;2023-05-29T01:39:01;7.38;;;4.10;;
66175;SDS011;52977;44.816;20.538;2023-05-29T01:41:27;10.30;;;4.60;;
66175;SDS011;52977;44.816;20.538;2023-05-29T01:43:54;8.88;;;4.47;;
66175;SDS011;52977;44.816;20.538;2023-05-29T01:46:22;8.35;;;4.70;;
66175;SDS011;52977;44.816;20.538;2023-05-29T01:48:50;16.95;;;5.38;;
66175;SDS011;52977;44.816;20.538;2023-05-29T01:51:17;8.63;;;4.68;;
66175;SDS011;52977;44.816;20.538;2023-05-29T01:53:45;12.32;;;4.65;;
66175;SDS011;52977;44.816;20.538;2023-05-29T01:56:11;10.60;;;4.72;;
66175;SDS011;52977;44.816;20.538;2023-05-29T01:58:38;10.32;;;4.63;;
66175;SDS011;52977;44.816;20.538;2023-05-29T02:01:06;8.25;;;4.40;;
66175;SDS011;52977;44.816;20.538;2023-05-29T02:03:33;8.38;;;4.50;;
66175;SDS011;52977;44.816;20.538;2023-05-29T02:06:00;9.52;;;4.93;;
66175;SDS011;52977;44.816;20.538;2023-05-29T02:08:26;9.63;;;4.72;;
66175;SDS011;52977;44.816;20.538;2023-05-29T02:10:53;12.05;;;5.40;;
66175;SDS011;52977;44.816;20.538;2023-05-29T02:13:19;13.77;;;5.30;;
66175;SDS011;52977;44.816;20.538;2023-05-29T02:15:47;10.30;;;5.40;;
66175;SDS011;52977;44.816;20.538;2023-05-29T02:18:14;11.98;;;5.18;;
66175;SDS011;52977;44.816;20.538;2023-05-29T02:20:44;9.52;;;5.03;;
66175;SDS011;52977;44.816;20.538;2023-05-29T02:23:16;8.88;;;5.30;;
66175;SDS011;52977;44.816;20.538;2023-05-29T02:25:42;11.05;;;5.28;;
66175;SDS011;52977;44.816;20.538;2023-05-29T02:28:09;10.20;;;5.10;;
66175;SDS011;52977;44.816;20.538;2023-05-29T02:30:36;9.50;;;5.13;;
66175;SDS011;52977;44.816;20.538;2023-05-29T02:33:02;9.63;;;5.43;;
66175;SDS011;52977;44.816;20.538;2023-05-29T02:35:28;10.63;;;5.38;;
66175;SDS011;52977;44.816;20.538;2023-05-29T02:37:55;9.57;;;4.95;;
66175;SDS011;52977;44.816;20.538;2023-05-29T02:40:22;11.38;;;5.32;;
66175;SDS011;52977;44.816;20.538;2023-05-29T02:42:49;9.43;;;5.40;;
66175;SDS011;52977;44.816;20.538;2023-05-29T02:45:16;7.82;;;4.60;;
66175;SDS011;52977;44.816;20.538;2023-05-29T02:47:43;8.23;;;4.63;;
66175;SDS011;52977;44.816;20.538;2023-05-29T02:50:09;8.07;;;4.20;;
66175;SDS011;52977;44.816;20.538;2023-05-29T02:52:36;10.88;;;4.90;;
66175;SDS011;52977;44.816;20.538;2023-05-29T02:55:03;10.35;;;4.75;;
66175;SDS011;52977;44.816;20.538;2023-05-29T02:57:31;9.48;;;4.68;;
66175;SDS011;52977;44.816;20.538;2023-05-29T02:59:58;9.93;;;4.50;;
66175;SDS011;52977;44.816;20.538;2023-05-29T03:02:25;7.95;;;4.20;;
66175;SDS011;52977;44.816;20.538;2023-05-29T03:04:50;8.13;;;4.85;;
66175;SDS011;52977;44.816;20.538;2023-05-29T03:07:18;13.15;;;4.65;;
66175;SDS011;52977;44.816;20.538;2023-05-29T03:09:44;8.30;;;4.68;;
66175;SDS011;52977;44.816;20.538;2023-05-29T03:12:10;10.38;;;5.20;;
66175;SDS011;52977;44.816;20.538;2023-05-29T03:14:37;12.93;;;5.47;;
66175;SDS011;52977;44.816;20.538;2023-05-29T03:17:06;9.73;;;5.10;;
66175;SDS011;52977;44.816;20.538;2023-05-29T03:19:35;9.50;;;5.40;;
66175;SDS011;52977;44.816;20.538;2023-05-29T03:22:00;9.25;;;5.10;;
66175;SDS011;52977;44.816;20.538;2023-05-29T03:24:29;11.95;;;4.95;;
66175;SDS011;52977;44.816;20.538;2023-05-29T03:26:54;9.50;;;5.25;;
66175;SDS011;52977;44.816;20.538;2023-05-29T03:29:22;8.65;;;4.78;;
66175;SDS011;52977;44.816;20.538;2023-05-29T03:31:49;9.77;;;4.60;;
66175;SDS011;52977;44.816;20.538;2023-05-29T03:34:22;8.57;;;4.93;;
66175;SDS011;52977;44.816;20.538;2023-05-29T03:36:56;11.63;;;5.80;;
66175;SDS011;52977;44.816;20.538;2023-05-29T03:39:23;7.80;;;4.70;;
66175;SDS011;52977;44.816;20.538;2023-05-29T03:41:49;8.95;;;4.57;;
66175;SDS011;52977;44.816;20.538;2023-05-29T03:44:15;10.02;;;5.13;;
66175;SDS011;52977;44.816;20.538;2023-05-29T03:46:41;10.07;;;4.80;;
66175;SDS011;52977;44.816;20.538;2023-05-29T03:49:07;8.98;;;5.03;;
66175;SDS011;52977;44.816;20.538;2023-05-29T03:51:34;9.13;;;4.45;;
66175;SDS011;52977;44.816;20.538;2023-05-29T03:54:03;8.02;;;4.68;;
66175;SDS011;52977;44.816;20.538;2023-05-29T03:56:29;9.00;;;4.53;;
66175;SDS011;52977;44.816;20.538;2023-05-29T03:58:55;8.35;;;4.43;;
66175;SDS011;52977;44.816;20.538;2023-05-29T04:01:21;11.95;;;5.20;;
66175;SDS011;52977;44.816;20.538;2023-05-29T04:03:48;9.45;;;5.03;;
66175;SDS011;52977;44.816;20.538;2023-05-29T04:06:15;10.32;;;4.68;;
66175;SDS011;52977;44.816;20.538;2023-05-29T04:08:42;9.68;;;5.07;;
66175;SDS011;52977;44.816;20.538;2023-05-29T04:11:08;9.00;;;5.07;;
66175;SDS011;52977;44.816;20.538;2023-05-29T04:13:34;11.65;;;5.18;;
66175;SDS011;52977;44.816;20.538;2023-05-29T04:16:00;8.30;;;4.57;;
66175;SDS011;52977;44.816;20.538;2023-05-29T04:18:27;10.13;;;5.28;;
66175;SDS011;52977;44.816;20.538;2023-05-29T04:20:53;13.27;;;5.82;;
66175;SDS011;52977;44.816;20.538;2023-05-29T04:23:19;10.98;;;6.07;;
66175;SDS011;52977;44.816;20.538;2023-05-29T04:25:46;9.57;;;5.55;;
66175;SDS011;52977;44.816;20.538;2023-05-29T04:28:16;13.67;;;5.47;;
66175;SDS011;52977;44.816;20.538;2023-05-29T04:30:43;13.70;;;5.65;;
66175;SDS011;52977;44.816;20.538;2023-05-29T04:33:09;8.43;;;4.78;;
66175;SDS011;52977;44.816;20.538;2023-05-29T04:35:42;11.40;;;5.18;;
66175;SDS011;52977;44.816;20.538;2023-05-29T04:38:09;10.27;;;5.25;;
66175;SDS011;52977;44.816;20.538;2023-05-29T04:40:36;10.18;;;5.55;;
66175;SDS011;52977;44.816;20.538;2023-05-29T04:43:03;11.02;;;5.60;;
66175;SDS011;52977;44.816;20.538;2023-05-29T04:45:45;12.45;;;5.95;;
66175;SDS011;52977;44.816;20.538;2023-05-29T04:48:11;14.93;;;6.55;;
66175;SDS011;52977;44.816;20.538;2023-05-29T04:50:38;16.88;;;6.43;;
66175;SDS011;52977;44.816;20.538;2023-05-29T04:53:05;12.23;;;6.22;;
66175;SDS011;52977;44.816;20.538;2023-05-29T04:55:32;12.70;;;5.85;;
66175;SDS011;52977;44.816;20.538;2023-05-29T04:57:58;12.35;;;5.80;;
66175;SDS011;52977;44.816;20.538;2023-05-29T05:00:26;10.88;;;6.03;;
66175;SDS011;52977;44.816;20.538;2023-05-29T05:02:52;14.57;;;6.50;;
66175;SDS011;52977;44.816;20.538;2023-05-29T05:05:18;11.18;;;6.03;;
66175;SDS011;52977;44.816;20.538;2023-05-29T05:07:45;12.68;;;6.40;;
66175;SDS011;52977;44.816;20.538;2023-05-29T05:10:12;12.80;;;6.32;;
66175;SDS011;52977;44.816;20.538;2023-05-29T05:12:37;10.23;;;5.75;;
66175;SDS011;52977;44.816;20.538;2023-05-29T05:15:03;10.73;;;5.35;;
66175;SDS011;52977;44.816;20.538;2023-05-29T05:17:32;11.25;;;5.85;;
66175;SDS011;52977;44.816;20.538;2023-05-29T05:19:59;11.05;;;5.95;;
66175;SDS011;52977;44.816;20.538;2023-05-29T05:22:25;9.63;;;4.85;;
66175;SDS011;52977;44.816;20.538;2023-05-29T05:24:51;12.82;;;5.65;;
66175;SDS011;52977;44.816;20.538;2023-05-29T05:27:19;8.18;;;4.68;;
66175;SDS011;52977;44.816;20.538;2023-05-29T05:29:45;10.65;;;5.15;;
66175;SDS011;52977;44.816;20.538;2023-05-29T05:32:10;10.98;;;5.10;;
66175;SDS011;52977;44.816;20.538;2023-05-29T05:34:37;9.60;;;4.82;;
66175;SDS011;52977;44.816;20.538;2023-05-29T05:37:02;8.73;;;4.57;;
66175;SDS011;52977;44.816;20.538;2023-05-29T05:39:28;14.30;;;5.53;;
66175;SDS011;52977;44.816;20.538;2023-05-29T05:41:54;11.93;;;5.25;;
66175;SDS011;52977;44.816;20.538;2023-05-29T05:44:40;8.45;;;4.72;;
66175;SDS011;52977;44.816;20.538;2023-05-29T05:47:09;7.90;;;4.82;;
66175;SDS011;52977;44.816;20.538;2023-05-29T05:49:35;9.85;;;4.85;;
66175;SDS011;52977;44.816;20.538;2023-05-29T05:52:01;9.52;;;4.45;;
66175;SDS011;52977;44.816;20.538;2023-05-29T05:54:27;7.55;;;4.40;;
66175;SDS011;52977;44.816;20.538;2023-05-29T05:56:54;7.78;;;4.68;;
66175;SDS011;52977;44.816;20.538;2023-05-29T05:59:20;12.18;;;4.80;;
66175;SDS011;52977;44.816;20.538;2023-05-29T06:01:46;8.75;;;4.50;;
66175;SDS011;52977;44.816;20.538;2023-05-29T06:04:13;9.50;;;4.50;;
66175;SDS011;52977;44.816;20.538;2023-05-29T06:06:39;7.28;;;4.15;;
66175;SDS011;52977;44.816;20.538;2023-05-29T06:09:06;7.97;;;4.72;;
66175;SDS011;52977;44.816;20.538;2023-05-29T06:11:33;9.70;;;5.00;;
66175;SDS011;52977;44.816;20.538;2023-05-29T06:13:59;9.00;;;4.20;;
66175;SDS011;52977;44.816;20.538;2023-05-29T06:16:28;6.30;;;3.88;;
66175;SDS011;52977;44.816;20.538;2023-05-29T06:18:56;10.15;;;4.32;;
66175;SDS011;52977;44.816;20.538;2023-05-29T06:21:23;11.73;;;5.05;;
66175;SDS011;52977;44.816;20.538;2023-05-29T06:23:53;10.43;;;5.05;;
66175;SDS011;52977;44.816;20.538;2023-05-29T06:26:20;11.68;;;4.80;;
66175;SDS011;52977;44.816;20.538;2023-05-29T06:28:48;12.57;;;5.63;;
66175;SDS011;52977;44.816;20.538;2023-05-29T06:31:15;13.02;;;6.20;;
66175;SDS011;52977;44.816;20.538;2023-05-29T06:33:42;10.93;;;5.68;;
66175;SDS011;52977;44.816;20.538;2023-05-29T06:36:08;10.00;;;5.50;;
66175;SDS011;52977;44.816;20.538;2023-05-29T06:38:35;7.90;;;4.43;;
66175;SDS011;52977;44.816;20.538;2023-05-29T06:41:04;10.43;;;5.47;;
66175;SDS011;52977;44.816;20.538;2023-05-29T06:43:32;10.55;;;4.95;;
66175;SDS011;52977;44.816;20.538;2023-05-29T06:46:02;10.50;;;4.90;;
66175;SDS011;52977;44.816;20.538;2023-05-29T06:48:31;9.85;;;5.03;;
66175;SDS011;52977;44.816;20.538;2023-05-29T06:50:59;18.23;;;10.18;;
66175;SDS011;52977;44.816;20.538;2023-05-29T06:53:45;10.88;;;6.68;;
66175;SDS011;52977;44.816;20.538;2023-05-29T06:56:12;8.80;;;4.57;;
66175;SDS011;52977;44.816;20.538;2023-05-29T06:58:39;9.43;;;5.10;;
66175;SDS011;52977;44.816;20.538;2023-05-29T07:01:06;18.65;;;10.35;;
66175;SDS011;52977;44.816;20.538;2023-05-29T07:03:34;16.52;;;9.30;;
66175;SDS011;52977;44.816;20.538;2023-05-29T07:06:03;12.10;;;6.30;;
66175;SDS011;52977;44.816;20.538;2023-05-29T07:08:31;11.15;;;4.95;;
66175;SDS011;52977;44.816;20.538;2023-05-29T07:10:58;7.53;;;4.50;;
66175;SDS011;52977;44.816;20.538;2023-05-29T07:13:25;17.30;;;8.25;;
66175;SDS011;52977;44.816;20.538;2023-05-29T07:15:54;7.68;;;4.18;;
66175;SDS011;52977;44.816;20.538;2023-05-29T07:18:27;10.75;;;4.43;;
66175;SDS011;52977;44.816;20.538;2023-05-29T07:20:57;9.05;;;4.88;;
66175;SDS011;52977;44.816;20.538;2023-05-29T07:25:52;11.25;;;5.20;;
66175;SDS011;52977;44.816;20.538;2023-05-29T07:28:18;10.98;;;5.03;;
66175;SDS011;52977;44.816;20.538;2023-05-29T07:30:45;11.60;;;5.20;;
66175;SDS011;52977;44.816;20.538;2023-05-29T07:33:12;9.60;;;5.03;;
66175;SDS011;52977;44.816;20.538;2023-05-29T07:35:38;10.52;;;5.35;;
66175;SDS011;52977;44.816;20.538;2023-05-29T07:38:04;12.93;;;6.10;;
66175;SDS011;52977;44.816;20.538;2023-05-29T07:40:32;11.13;;;6.03;;
66175;SDS011;52977;44.816;20.538;2023-05-29T07:42:58;8.98;;;5.53;;
66175;SDS011;52977;44.816;20.538;2023-05-29T07:45:36;10.40;;;5.30;;
66175;SDS011;52977;44.816;20.538;2023-05-29T07:48:03;15.23;;;6.35;;
66175;SDS011;52977;44.816;20.538;2023-05-29T07:50:30;12.52;;;5.90;;
66175;SDS011;52977;44.816;20.538;2023-05-29T07:52:56;13.07;;;6.03;;
66175;SDS011;52977;44.816;20.538;2023-05-29T07:55:23;11.55;;;6.05;;
66175;SDS011;52977;44.816;20.538;2023-05-29T07:57:49;11.38;;;5.85;;
66175;SDS011;52977;44.816;20.538;2023-05-29T08:00:15;12.30;;;5.95;;
66175;SDS011;52977;44.816;20.538;2023-05-29T08:02:45;12.82;;;6.45;;
66175;SDS011;52977;44.816;20.538;2023-05-29T08:05:31;11.20;;;6.18;;
66175;SDS011;52977;44.816;20.538;2023-05-29T08:08:00;13.07;;;6.57;;
66175;SDS011;52977;44.816;20.538;2023-05-29T08:10:26;12.10;;;6.45;;
66175;SDS011;52977;44.816;20.538;2023-05-29T08:12:53;10.30;;;5.75;;
66175;SDS011;52977;44.816;20.538;2023-05-29T08:15:19;11.32;;;6.70;;
66175;SDS011;52977;44.816;20.538;2023-05-29T08:17:46;11.20;;;6.20;;
66175;SDS011;52977;44.816;20.538;2023-05-29T08:20:12;10.18;;;5.55;;
66175;SDS011;52977;44.816;20.538;2023-05-29T08:22:38;13.77;;;6.82;;
66175;SDS011;52977;44.816;20.538;2023-05-29T08:25:05;13.57;;;7.00;;
66175;SDS011;52977;44.816;20.538;2023-05-29T08:27:31;12.43;;;6.68;;
66175;SDS011;52977;44.816;20.538;2023-05-29T08:29:57;13.27;;;6.57;;
66175;SDS011;52977;44.816;20.538;2023-05-29T08:32:23;12.32;;;6.72;;
66175;SDS011;52977;44.816;20.538;2023-05-29T08:34:50;14.63;;;6.13;;
66175;SDS011;52977;44.816;20.538;2023-05-29T08:37:17;17.35;;;6.78;;
66175;SDS011;52977;44.816;20.538;2023-05-29T08:39:43;13.88;;;7.00;;
66175;SDS011;52977;44.816;20.538;2023-05-29T08:42:13;13.23;;;6.70;;
66175;SDS011;52977;44.816;20.538;2023-05-29T08:44:46;15.10;;;6.57;;
66175;SDS011;52977;44.816;20.538;2023-05-29T08:47:33;13.20;;;5.90;;
66175;SDS011;52977;44.816;20.538;2023-05-29T08:50:00;11.90;;;6.60;;
66175;SDS011;52977;44.816;20.538;2023-05-29T08:52:27;11.57;;;6.60;;
66175;SDS011;52977;44.816;20.538;2023-05-29T08:54:56;12.35;;;6.00;;
66175;SDS011;52977;44.816;20.538;2023-05-29T08:57:24;12.57;;;6.13;;
66175;SDS011;52977;44.816;20.538;2023-05-29T08:59:51;13.40;;;5.57;;
66175;SDS011;52977;44.816;20.538;2023-05-29T09:02:18;12.60;;;5.97;;
66175;SDS011;52977;44.816;20.538;2023-05-29T09:04:45;11.20;;;6.40;;
66175;SDS011;52977;44.816;20.538;2023-05-29T09:07:17;12.48;;;6.90;;
66175;SDS011;52977;44.816;20.538;2023-05-29T09:09:44;15.27;;;7.88;;
66175;SDS011;52977;44.816;20.538;2023-05-29T09:12:14;11.63;;;6.18;;
66175;SDS011;52977;44.816;20.538;2023-05-29T09:14:42;16.42;;;6.78;;
66175;SDS011;52977;44.816;20.538;2023-05-29T09:17:10;11.35;;;6.57;;
66175;SDS011;52977;44.816;20.538;2023-05-29T09:19:38;12.07;;;6.68;;
66175;SDS011;52977;44.816;20.538;2023-05-29T09:22:07;15.63;;;8.50;;
66175;SDS011;52977;44.816;20.538;2023-05-29T09:24:34;11.52;;;6.15;;
66175;SDS011;52977;44.816;20.538;2023-05-29T09:27:08;15.50;;;6.70;;
66175;SDS011;52977;44.816;20.538;2023-05-29T09:29:41;10.70;;;6.10;;
66175;SDS011;52977;44.816;20.538;2023-05-29T09:34:35;11.07;;;5.80;;
66175;SDS011;52977;44.816;20.538;2023-05-29T09:37:02;10.25;;;5.18;;
66175;SDS011;52977;44.816;20.538;2023-05-29T09:42:07;18.85;;;7.88;;
66175;SDS011;52977;44.816;20.538;2023-05-29T09:44:33;13.23;;;6.60;;
66175;SDS011;52977;44.816;20.538;2023-05-29T09:47:00;10.02;;;5.35;;
66175;SDS011;52977;44.816;20.538;2023-05-29T09:49:26;10.20;;;5.25;;
66175;SDS011;52977;44.816;20.538;2023-05-29T09:52:12;9.32;;;4.53;;
66175;SDS011;52977;44.816;20.538;2023-05-29T09:54:42;9.55;;;4.90;;
66175;SDS011;52977;44.816;20.538;2023-05-29T09:57:14;9.30;;;4.50;;
66175;SDS011;52977;44.816;20.538;2023-05-29T09:59:43;10.32;;;4.68;;
66175;SDS011;52977;44.816;20.538;2023-05-29T10:02:10;11.77;;;4.65;;
66175;SDS011;52977;44.816;20.538;2023-05-29T10:04:39;9.68;;;4.60;;
66175;SDS011;52977;44.816;20.538;2023-05-29T10:09:57;10.20;;;4.40;;
66175;SDS011;52977;44.816;20.538;2023-05-29T10:12:27;9.77;;;4.40;;
66175;SDS011;52977;44.816;20.538;2023-05-29T10:14:56;12.52;;;5.03;;
66175;SDS011;52977;44.816;20.538;2023-05-29T10:17:25;8.77;;;4.87;;
66175;SDS011;52977;44.816;20.538;2023-05-29T10:19:58;8.10;;;4.78;;
66175;SDS011;52977;44.816;20.538;2023-05-29T10:22:27;8.43;;;5.03;;
66175;SDS011;52977;44.816;20.538;2023-05-29T10:24:54;8.80;;;5.03;;
66175;SDS011;52977;44.816;20.538;2023-05-29T10:27:22;8.95;;;5.15;;
66175;SDS011;52977;44.816;20.538;2023-05-29T10:38:36;8.55;;;5.28;;
66175;SDS011;52977;44.816;20.538;2023-05-29T10:43:55;9.52;;;5.35;;
66175;SDS011;52977;44.816;20.538;2023-05-29T10:49:16;9.70;;;5.50;;
66175;SDS011;52977;44.816;20.538;2023-05-29T10:51:43;10.82;;;5.15;;
66175;SDS011;52977;44.816;20.538;2023-05-29T10:54:09;10.07;;;5.32;;
66175;SDS011;52977;44.816;20.538;2023-05-29T10:56:36;9.73;;;5.53;;
66175;SDS011;52977;44.816;20.538;2023-05-29T10:59:02;9.90;;;5.85;;
66175;SDS011;52977;44.816;20.538;2023-05-29T11:01:29;11.25;;;5.60;;
66175;SDS011;52977;44.816;20.538;2023-05-29T11:06:43;24.77;;;13.73;;
66175;SDS011;52977;44.816;20.538;2023-05-29T11:09:25;19.85;;;10.85;;
66175;SDS011;52977;44.816;20.538;2023-05-29T11:14:53;9.15;;;5.60;;
66175;SDS011;52977;44.816;20.538;2023-05-29T11:20:02;8.73;;;5.88;;
66175;SDS011;52977;44.816;20.538;2023-05-29T11:23:18;8.18;;;4.88;;
66175;SDS011;52977;44.816;20.538;2023-05-29T11:25:25;23.30;;;9.82;;
66175;SDS011;52977;44.816;20.538;2023-05-29T11:27:52;13.15;;;6.07;;
66175;SDS011;52977;44.816;20.538;2023-05-29T11:30:18;10.07;;;5.60;;
66175;SDS011;52977;44.816;20.538;2023-05-29T11:32:44;10.48;;;5.10;;
66175;SDS011;52977;44.816;20.538;2023-05-29T11:35:12;11.07;;;5.45;;
66175;SDS011;52977;44.816;20.538;2023-05-29T11:37:39;11.60;;;5.82;;
66175;SDS011;52977;44.816;20.538;2023-05-29T11:40:09;11.17;;;5.53;;
66175;SDS011;52977;44.816;20.538;2023-05-29T11:42:42;9.07;;;4.90;;
66175;SDS011;52977;44.816;20.538;2023-05-29T11:45:14;9.73;;;4.85;;
66175;SDS011;52977;44.816;20.538;2023-05-29T11:50:22;10.32;;;4.75;;
66175;SDS011;52977;44.816;20.538;2023-05-29T11:52:49;8.40;;;4.40;;
66175;SDS011;52977;44.816;20.538;2023-05-29T11:55:20;12.30;;;5.00;;
66175;SDS011;52977;44.816;20.538;2023-05-29T11:57:47;9.45;;;5.10;;
66175;SDS011;52977;44.816;20.538;2023-05-29T12:00:14;7.68;;;4.45;;
66175;SDS011;52977;44.816;20.538;2023-05-29T12:02:42;8.55;;;4.53;;
66175;SDS011;52977;44.816;20.538;2023-05-29T12:05:09;6.80;;;4.30;;
66175;SDS011;52977;44.816;20.538;2023-05-29T12:07:36;11.57;;;4.10;;
66175;SDS011;52977;44.816;20.538;2023-05-29T12:10:12;8.48;;;4.28;;
66175;SDS011;52977;44.816;20.538;2023-05-29T12:12:40;11.60;;;4.95;;
66175;SDS011;52977;44.816;20.538;2023-05-29T12:15:07;9.25;;;4.03;;
66175;SDS011;52977;44.816;20.538;2023-05-29T12:17:34;6.50;;;3.08;;
66175;SDS011;52977;44.816;20.538;2023-05-29T12:20:03;8.90;;;3.90;;
66175;SDS011;52977;44.816;20.538;2023-05-29T12:22:35;5.93;;;2.70;;
66175;SDS011;52977;44.816;20.538;2023-05-29T12:25:06;7.78;;;2.85;;
66175;SDS011;52977;44.816;20.538;2023-05-29T12:27:34;5.10;;;2.95;;
66175;SDS011;52977;44.816;20.538;2023-05-29T12:30:07;6.82;;;2.35;;
66175;SDS011;52977;44.816;20.538;2023-05-29T12:32:43;5.97;;;2.92;;
66175;SDS011;52977;44.816;20.538;2023-05-29T12:37:45;6.35;;;2.65;;
66175;SDS011;52977;44.816;20.538;2023-05-29T12:40:18;9.27;;;2.80;;
66175;SDS011;52977;44.816;20.538;2023-05-29T12:42:53;5.15;;;2.75;;
66175;SDS011;52977;44.816;20.538;2023-05-29T12:45:29;5.15;;;2.50;;
66175;SDS011;52977;44.816;20.538;2023-05-29T12:47:59;6.80;;;2.70;;
66175;SDS011;52977;44.816;20.538;2023-05-29T12:50:30;6.53;;;2.58;;
66175;SDS011;52977;44.816;20.538;2023-05-29T12:53:02;3.87;;;2.30;;
66175;SDS011;52977;44.816;20.538;2023-05-29T12:55:31;3.85;;;2.05;;
66175;SDS011;52977;44.816;20.538;2023-05-29T12:57:59;3.80;;;2.10;;
66175;SDS011;52977;44.816;20.538;2023-05-29T13:00:25;3.97;;;2.10;;
66175;SDS011;52977;44.816;20.538;2023-05-29T13:02:51;5.38;;;2.10;;
66175;SDS011;52977;44.816;20.538;2023-05-29T13:05:17;4.25;;;2.03;;
66175;SDS011;52977;44.816;20.538;2023-05-29T13:07:51;5.57;;;2.47;;
66175;SDS011;52977;44.816;20.538;2023-05-29T13:10:18;5.47;;;2.30;;
66175;SDS011;52977;44.816;20.538;2023-05-29T13:12:44;3.90;;;2.00;;
66175;SDS011;52977;44.816;20.538;2023-05-29T13:15:12;3.83;;;2.10;;
66175;SDS011;52977;44.816;20.538;2023-05-29T13:17:39;5.22;;;2.00;;
66175;SDS011;52977;44.816;20.538;2023-05-29T13:20:07;4.40;;;2.33;;
66175;SDS011;52977;44.816;20.538;2023-05-29T13:22:40;4.80;;;2.03;;
66175;SDS011;52977;44.816;20.538;2023-05-29T13:25:08;4.68;;;2.40;;
66175;SDS011;52977;44.816;20.538;2023-05-29T13:27:39;5.15;;;2.38;;
66175;SDS011;52977;44.816;20.538;2023-05-29T13:30:08;4.85;;;2.03;;
66175;SDS011;52977;44.816;20.538;2023-05-29T13:32:35;4.75;;;2.17;;
66175;SDS011;52977;44.816;20.538;2023-05-29T13:35:01;3.92;;;1.88;;
66175;SDS011;52977;44.816;20.538;2023-05-29T13:37:28;3.13;;;1.55;;
66175;SDS011;52977;44.816;20.538;2023-05-29T13:39:55;4.72;;;1.92;;
66175;SDS011;52977;44.816;20.538;2023-05-29T13:42:21;3.10;;;1.65;;
66175;SDS011;52977;44.816;20.538;2023-05-29T13:44:48;3.25;;;1.80;;
66175;SDS011;52977;44.816;20.538;2023-05-29T13:47:15;5.57;;;1.90;;
66175;SDS011;52977;44.816;20.538;2023-05-29T13:49:42;4.80;;;2.15;;
66175;SDS011;52977;44.816;20.538;2023-05-29T13:52:08;3.90;;;2.10;;
66175;SDS011;52977;44.816;20.538;2023-05-29T13:54:34;5.05;;;2.30;;
66175;SDS011;52977;44.816;20.538;2023-05-29T13:57:05;5.15;;;2.42;;
66175;SDS011;52977;44.816;20.538;2023-05-29T14:01:59;4.65;;;2.53;;
66175;SDS011;52977;44.816;20.538;2023-05-29T14:04:25;4.80;;;2.75;;
66175;SDS011;52977;44.816;20.538;2023-05-29T14:06:52;4.47;;;2.50;;
66175;SDS011;52977;44.816;20.538;2023-05-29T14:09:18;5.85;;;2.80;;
66175;SDS011;52977;44.816;20.538;2023-05-29T14:11:57;5.90;;;2.47;;
66175;SDS011;52977;44.816;20.538;2023-05-29T14:14:24;5.53;;;2.58;;
66175;SDS011;52977;44.816;20.538;2023-05-29T14:16:51;5.72;;;2.38;;
66175;SDS011;52977;44.816;20.538;2023-05-29T14:19:18;4.53;;;2.28;;
66175;SDS011;52977;44.816;20.538;2023-05-29T14:21:45;6.72;;;2.55;;
66175;SDS011;52977;44.816;20.538;2023-05-29T14:24:11;4.93;;;2.55;;
66175;SDS011;52977;44.816;20.538;2023-05-29T14:26:37;7.55;;;2.92;;
66175;SDS011;52977;44.816;20.538;2023-05-29T14:29:02;5.70;;;2.63;;
66175;SDS011;52977;44.816;20.538;2023-05-29T14:31:29;5.90;;;2.30;;
66175;SDS011;52977;44.816;20.538;2023-05-29T14:33:56;5.50;;;2.53;;
66175;SDS011;52977;44.816;20.538;2023-05-29T14:36:22;6.00;;;2.45;;
66175;SDS011;52977;44.816;20.538;2023-05-29T14:38:48;5.60;;;2.50;;
66175;SDS011;52977;44.816;20.538;2023-05-29T14:41:15;4.85;;;2.38;;
66175;SDS011;52977;44.816;20.538;2023-05-29T14:43:43;6.75;;;2.70;;
66175;SDS011;52977;44.816;20.538;2023-05-29T14:46:09;9.10;;;2.45;;
66175;SDS011;52977;44.816;20.538;2023-05-29T14:48:36;4.57;;;2.47;;
66175;SDS011;52977;44.816;20.538;2023-05-29T14:51:02;5.40;;;2.67;;
66175;SDS011;52977;44.816;20.538;2023-05-29T14:53:28;5.60;;;2.65;;
66175;SDS011;52977;44.816;20.538;2023-05-29T14:55:56;7.88;;;2.70;;
66175;SDS011;52977;44.816;20.538;2023-05-29T14:58:22;7.82;;;2.45;;
66175;SDS011;52977;44.816;20.538;2023-05-29T15:00:48;6.50;;;2.95;;
66175;SDS011;52977;44.816;20.538;2023-05-29T15:03:14;4.90;;;2.70;;
66175;SDS011;52977;44.816;20.538;2023-05-29T15:05:40;6.15;;;2.50;;
66175;SDS011;52977;44.816;20.538;2023-05-29T15:08:06;5.93;;;2.85;;
66175;SDS011;52977;44.816;20.538;2023-05-29T15:10:32;8.07;;;3.65;;
66175;SDS011;52977;44.816;20.538;2023-05-29T15:12:58;5.38;;;2.80;;
66175;SDS011;52977;44.816;20.538;2023-05-29T15:15:24;5.40;;;2.50;;
66175;SDS011;52977;44.816;20.538;2023-05-29T15:17:51;5.35;;;2.80;;
66175;SDS011;52977;44.816;20.538;2023-05-29T15:20:21;5.45;;;2.95;;
66175;SDS011;52977;44.816;20.538;2023-05-29T15:22:47;9.23;;;2.92;;
66175;SDS011;52977;44.816;20.538;2023-05-29T15:25:14;6.22;;;3.58;;